createdAt,value
2023-03-17T00:02:21.986Z,4.47
2023-03-17T00:04:52.216Z,5.00
2023-03-17T00:07:19.971Z,4.40
2023-03-17T00:09:47.289Z,4.40
2023-03-17T00:12:15.154Z,5.00
2023-03-17T00:14:44.134Z,4.77
2023-03-17T00:17:14.039Z,5.53
2023-03-17T00:19:42.615Z,4.90
2023-03-17T00:22:15.149Z,4.70
2023-03-17T00:24:42.417Z,4.63
2023-03-17T00:27:12.105Z,4.70
2023-03-17T00:29:39.968Z,4.30
2023-03-17T00:32:09.320Z,4.50
2023-03-17T00:34:36.649Z,4.80
2023-03-17T00:37:04.133Z,4.20
2023-03-17T00:39:31.862Z,5.47
2023-03-17T00:41:59.591Z,4.90
2023-03-17T00:44:26.922Z,4.60
2023-03-17T00:46:54.776Z,4.57
2023-03-17T00:49:23.385Z,4.27
2023-03-17T00:51:51.082Z,4.70
2023-03-17T00:54:19.371Z,5.13
2023-03-17T00:56:47.867Z,4.70
2023-03-17T00:59:25.750Z,4.80
2023-03-17T01:01:53.519Z,5.70
2023-03-17T01:04:20.959Z,5.20
2023-03-17T01:06:49.700Z,4.77
2023-03-17T01:09:18.436Z,5.30
2023-03-17T01:11:45.806Z,5.03
2023-03-17T01:14:13.394Z,5.73
2023-03-17T01:16:40.861Z,5.70
2023-03-17T01:19:10.012Z,5.57
2023-03-17T01:21:37.520Z,5.30
2023-03-17T01:24:05.339Z,5.10
2023-03-17T01:26:32.846Z,5.77
2023-03-17T01:29:00.195Z,5.93
2023-03-17T01:31:27.611Z,5.20
2023-03-17T01:33:54.998Z,5.80
2023-03-17T01:36:22.727Z,5.50
2023-03-17T01:38:50.754Z,4.90
2023-03-17T01:41:21.007Z,5.83
2023-03-17T01:43:48.735Z,5.80
2023-03-17T01:46:35.484Z,5.00
2023-03-17T01:49:06.955Z,5.30
2023-03-17T01:51:35.789Z,5.87
2023-03-17T01:54:04.622Z,4.83
2023-03-17T01:56:32.031Z,5.03
2023-03-17T01:59:01.419Z,4.83
2023-03-17T02:01:30.567Z,4.60
2023-03-17T02:03:59.340Z,5.17
2023-03-17T02:06:26.735Z,5.30
2023-03-17T02:08:54.070Z,5.30
2023-03-17T02:11:22.275Z,5.67
2023-03-17T02:13:49.588Z,4.50
2023-03-17T02:16:17.970Z,5.40
2023-03-17T02:18:45.343Z,5.80
2023-03-17T02:21:30.289Z,4.63
2023-03-17T02:23:58.202Z,5.00
2023-03-17T02:26:26.461Z,5.50
2023-03-17T02:28:53.806Z,5.00
2023-03-17T02:31:21.496Z,4.80
2023-03-17T02:33:48.879Z,4.40
2023-03-17T02:36:16.225Z,5.00
2023-03-17T02:38:43.549Z,4.67
2023-03-17T02:41:11.500Z,4.97
2023-03-17T02:43:38.827Z,4.13
2023-03-17T02:46:06.227Z,5.00
2023-03-17T02:48:34.958Z,4.73
2023-03-17T02:51:02.295Z,4.40
2023-03-17T02:53:29.624Z,4.10
2023-03-17T02:55:57.626Z,4.17
2023-03-17T02:58:24.964Z,4.63
2023-03-17T03:00:52.955Z,4.43
2023-03-17T03:03:20.395Z,4.40
2023-03-17T03:05:47.925Z,4.60
2023-03-17T03:08:16.201Z,5.00
2023-03-17T03:10:43.531Z,4.40
2023-03-17T03:13:11.447Z,4.53
2023-03-17T03:15:40.322Z,4.60
2023-03-17T03:18:07.692Z,4.03
2023-03-17T03:20:35.376Z,5.07
2023-03-17T03:23:02.667Z,5.40
2023-03-17T03:25:30.105Z,5.17
2023-03-17T03:27:57.455Z,5.10
2023-03-17T03:30:24.779Z,5.60
2023-03-17T03:32:52.740Z,5.23
2023-03-17T03:35:20.375Z,6.07
2023-03-17T03:37:47.809Z,6.00
2023-03-17T03:40:15.150Z,6.10
2023-03-17T03:42:42.491Z,6.00
2023-03-17T03:45:10.541Z,5.73
2023-03-17T03:47:37.810Z,5.17
2023-03-17T03:50:05.618Z,5.20
2023-03-17T03:52:33.648Z,6.47
2023-03-17T03:55:00.984Z,5.50
2023-03-17T03:57:28.372Z,5.53
2023-03-17T03:59:55.882Z,5.63
2023-03-17T04:02:23.249Z,5.50
2023-03-17T04:04:50.576Z,5.50
2023-03-17T04:07:17.900Z,5.20
2023-03-17T04:09:45.505Z,4.83
2023-03-17T04:12:12.997Z,5.37
2023-03-17T04:14:40.399Z,4.90
2023-03-17T04:17:08.924Z,5.10
2023-03-17T04:19:36.232Z,4.87
2023-03-17T04:22:03.590Z,5.60
2023-03-17T04:24:30.978Z,5.10
2023-03-17T04:26:59.174Z,5.10
2023-03-17T04:29:26.491Z,5.10
2023-03-17T04:31:53.940Z,5.13
2023-03-17T04:34:21.377Z,4.80
2023-03-17T04:36:48.707Z,5.03
2023-03-17T04:39:16.626Z,4.73
2023-03-17T04:41:44.004Z,4.40
2023-03-17T04:44:11.318Z,4.90
2023-03-17T04:46:38.658Z,4.73
2023-03-17T04:49:06.749Z,5.10
2023-03-17T04:51:35.155Z,4.63
2023-03-17T04:54:02.487Z,4.40
2023-03-17T04:56:31.715Z,4.47
2023-03-17T04:58:58.908Z,4.13
2023-03-17T05:01:26.289Z,4.40
2023-03-17T05:03:53.868Z,4.97
2023-03-17T05:06:21.253Z,4.33
2023-03-17T05:08:48.589Z,4.40
2023-03-17T05:11:15.916Z,5.47
2023-03-17T05:13:43.319Z,7.67
2023-03-17T05:16:10.986Z,8.03
2023-03-17T05:18:38.899Z,5.60
2023-03-17T05:21:07.580Z,5.20
2023-03-17T05:23:35.406Z,5.17
2023-03-17T05:26:02.910Z,4.67
2023-03-17T05:28:30.415Z,4.63
2023-03-17T05:30:58.259Z,4.90
2023-03-17T05:33:25.988Z,4.33
2023-03-17T05:35:53.581Z,4.43
2023-03-17T05:38:21.485Z,4.30
2023-03-17T05:40:52.454Z,4.00
2023-03-17T05:43:19.791Z,4.90
2023-03-17T05:45:47.775Z,4.17
2023-03-17T05:48:15.535Z,3.90
2023-03-17T05:50:43.321Z,4.80
2023-03-17T05:53:10.819Z,4.63
2023-03-17T05:55:38.314Z,4.37
2023-03-17T05:58:06.462Z,4.63
2023-03-17T06:00:33.820Z,4.70
2023-03-17T06:03:02.283Z,4.60
2023-03-17T06:05:29.602Z,4.73
2023-03-17T06:07:57.125Z,4.30
2023-03-17T06:10:25.296Z,4.50
2023-03-17T06:12:52.708Z,4.57
2023-03-17T06:15:20.307Z,3.87
2023-03-17T06:17:47.656Z,4.37
2023-03-17T06:20:15.618Z,4.80
2023-03-17T06:23:00.295Z,4.73
2023-03-17T06:25:12.207Z,3.90
2023-03-17T06:27:39.913Z,4.10
2023-03-17T06:30:08.163Z,4.20
2023-03-17T06:32:35.704Z,4.80
2023-03-17T06:35:05.047Z,5.50
2023-03-17T06:37:33.088Z,9.50
2023-03-17T06:40:00.985Z,11.17
2023-03-17T06:42:28.337Z,9.37
2023-03-17T06:44:55.745Z,6.47
2023-03-17T06:47:25.863Z,5.70
2023-03-17T06:49:52.055Z,5.13
2023-03-17T06:52:19.584Z,5.00
2023-03-17T06:54:46.976Z,4.83
2023-03-17T06:57:14.388Z,4.77
2023-03-17T06:59:41.764Z,4.93
2023-03-17T07:02:11.303Z,5.13
2023-03-17T07:04:38.849Z,5.47
2023-03-17T07:07:06.524Z,4.80
2023-03-17T07:09:37.044Z,4.67
2023-03-17T07:12:04.873Z,5.10
2023-03-17T07:14:36.533Z,4.70
2023-03-17T07:17:04.953Z,5.10
2023-03-17T07:19:32.674Z,4.73
2023-03-17T07:22:00.010Z,4.77
2023-03-17T07:24:27.317Z,4.37
2023-03-17T07:26:54.679Z,4.50
2023-03-17T07:29:22.592Z,4.40
2023-03-17T07:31:50.169Z,4.70
2023-03-17T07:34:17.740Z,4.77
2023-03-17T07:36:45.071Z,5.20
2023-03-17T07:39:12.850Z,4.37
2023-03-17T07:41:40.232Z,4.90
2023-03-17T07:44:08.160Z,5.53
2023-03-17T07:46:36.625Z,4.60
2023-03-17T07:49:04.326Z,5.03
2023-03-17T07:51:31.675Z,5.07
2023-03-17T07:54:00.663Z,5.07
2023-03-17T07:56:28.051Z,4.63
2023-03-17T07:58:56.853Z,5.03
2023-03-17T08:01:24.412Z,5.10
2023-03-17T08:03:51.755Z,4.60
2023-03-17T08:06:19.294Z,5.00
2023-03-17T08:08:46.601Z,5.17
2023-03-17T08:11:14.298Z,4.77
2023-03-17T08:13:41.787Z,5.27
2023-03-17T08:16:09.654Z,4.37
2023-03-17T08:18:37.477Z,4.60
2023-03-17T08:21:06.591Z,4.87
2023-03-17T08:23:33.925Z,5.00
2023-03-17T08:26:02.995Z,4.40
2023-03-17T08:28:31.146Z,4.77
2023-03-17T08:31:11.757Z,4.53
2023-03-17T08:33:37.620Z,4.40
2023-03-17T08:36:06.280Z,4.20
2023-03-17T08:38:33.813Z,4.83
2023-03-17T08:41:02.651Z,4.40
2023-03-17T08:43:30.032Z,5.07
2023-03-17T08:46:07.932Z,5.47
2023-03-17T08:48:36.312Z,5.63
2023-03-17T08:51:05.514Z,4.67
2023-03-17T08:53:34.716Z,4.97
2023-03-17T08:56:04.459Z,4.67
2023-03-17T08:58:31.803Z,5.17
2023-03-17T09:01:00.373Z,5.10
2023-03-17T09:03:28.127Z,4.57
2023-03-17T09:05:55.616Z,4.93
2023-03-17T09:08:23.264Z,4.63
2023-03-17T09:10:51.863Z,4.90
2023-03-17T09:13:19.365Z,5.40
2023-03-17T09:15:46.731Z,5.60
2023-03-17T09:18:14.421Z,4.97
2023-03-17T09:20:41.735Z,5.40
2023-03-17T09:23:10.422Z,4.80
2023-03-17T09:25:38.703Z,5.23
2023-03-17T09:28:08.585Z,4.53
2023-03-17T09:30:36.585Z,4.70
2023-03-17T09:33:04.762Z,5.07
2023-03-17T09:35:32.282Z,5.10
2023-03-17T09:37:59.973Z,4.40
2023-03-17T09:40:31.061Z,4.60
2023-03-17T09:43:06.018Z,4.43
2023-03-17T09:45:38.743Z,4.20
2023-03-17T09:48:10.896Z,4.03
2023-03-17T09:50:39.947Z,4.67
2023-03-17T09:53:09.195Z,5.10
2023-03-17T09:55:37.756Z,4.23
2023-03-17T09:58:05.080Z,4.50
2023-03-17T10:00:32.700Z,4.97
2023-03-17T10:03:01.269Z,4.60
2023-03-17T10:05:33.352Z,4.93
2023-03-17T10:08:30.508Z,4.83
2023-03-17T10:11:09.303Z,4.77
2023-03-17T10:13:38.242Z,4.80
2023-03-17T10:16:10.079Z,4.70
2023-03-17T10:18:51.224Z,4.70
2023-03-17T10:21:21.269Z,4.60
2023-03-17T10:23:48.996Z,4.87
2023-03-17T10:26:34.083Z,4.80
2023-03-17T10:29:05.981Z,4.93
2023-03-17T10:31:35.371Z,4.67
2023-03-17T10:34:04.344Z,4.67
2023-03-17T10:36:36.528Z,5.07
2023-03-17T10:39:06.594Z,4.43
2023-03-17T10:41:35.956Z,5.17
2023-03-17T10:44:04.823Z,5.40
2023-03-17T10:46:33.732Z,5.53
2023-03-17T10:49:05.663Z,5.37
2023-03-17T10:51:37.168Z,4.73
2023-03-17T10:54:09.300Z,5.53
2023-03-17T10:56:37.732Z,5.33
2023-03-17T10:59:06.704Z,5.20
2023-03-17T11:01:39.493Z,4.90
2023-03-17T11:04:25.655Z,4.87
2023-03-17T11:06:53.018Z,5.30
2023-03-17T11:09:21.298Z,5.53
2023-03-17T11:11:49.911Z,5.00
2023-03-17T11:14:18.927Z,5.53
2023-03-17T11:16:50.511Z,5.43
2023-03-17T11:19:18.630Z,4.60
2023-03-17T11:21:50.430Z,5.00
2023-03-17T11:24:26.059Z,4.97
2023-03-17T11:26:55.044Z,4.87
2023-03-17T11:29:40.872Z,4.83
2023-03-17T11:32:26.744Z,5.07
2023-03-17T11:35:08.007Z,5.00
2023-03-17T11:37:53.546Z,5.13
2023-03-17T11:40:22.411Z,4.93
2023-03-17T11:42:51.315Z,4.33
2023-03-17T11:45:20.565Z,4.53
2023-03-17T11:47:55.621Z,4.60
2023-03-17T11:50:27.694Z,4.60
2023-03-17T11:52:56.757Z,4.20
2023-03-17T11:55:26.099Z,3.40
2023-03-17T11:58:03.876Z,3.97
2023-03-17T12:00:33.481Z,3.90
2023-03-17T12:03:15.416Z,3.90
2023-03-17T12:05:45.247Z,3.30
2023-03-17T12:08:14.129Z,3.57
2023-03-17T12:10:45.987Z,4.10
2023-03-17T12:13:14.924Z,3.90
2023-03-17T12:15:43.912Z,4.07
2023-03-17T12:18:12.737Z,3.60
2023-03-17T12:20:54.134Z,3.90
2023-03-17T12:23:38.094Z,4.17
2023-03-17T12:26:21.833Z,4.47
2023-03-17T12:28:50.861Z,3.67
2023-03-17T12:31:19.870Z,4.33
2023-03-17T12:33:49.149Z,4.00
2023-03-17T12:36:17.463Z,4.03
2023-03-17T12:38:49.050Z,4.00
2023-03-17T12:41:20.664Z,4.27
2023-03-17T12:43:55.730Z,4.67
2023-03-17T12:46:24.627Z,4.67
2023-03-17T12:48:59.495Z,4.33
2023-03-17T12:51:31.121Z,4.10
2023-03-17T12:54:05.987Z,4.00
2023-03-17T12:56:37.519Z,5.00
2023-03-17T12:59:12.400Z,4.37
2023-03-17T13:01:41.463Z,4.47
2023-03-17T13:04:29.727Z,4.37
2023-03-17T13:07:15.024Z,4.03
2023-03-17T13:10:24.532Z,3.83
2023-03-17T13:12:53.494Z,4.23
2023-03-17T13:15:26.174Z,4.07
2023-03-17T13:17:55.064Z,4.20
2023-03-17T13:20:23.929Z,3.97
2023-03-17T13:23:04.777Z,4.20
2023-03-17T13:25:36.835Z,3.50
2023-03-17T13:28:15.173Z,3.80
2023-03-17T13:30:44.033Z,3.80
2023-03-17T13:33:14.749Z,4.20
2023-03-17T13:35:43.390Z,4.93
2023-03-17T13:38:28.719Z,4.13
2023-03-17T13:41:00.983Z,4.20
2023-03-17T13:43:30.474Z,3.97
2023-03-17T13:46:00.206Z,4.50
2023-03-17T13:48:33.450Z,4.93
2023-03-17T13:51:02.664Z,4.80
2023-03-17T13:53:31.585Z,4.73
2023-03-17T13:56:07.510Z,5.67
2023-03-17T13:58:36.068Z,5.60
2023-03-17T14:01:06.543Z,6.03
2023-03-17T14:03:44.533Z,6.30
2023-03-17T14:06:13.271Z,5.70
2023-03-17T14:08:51.215Z,5.43
2023-03-17T14:11:21.741Z,5.30
2023-03-17T14:13:50.628Z,5.40
2023-03-17T14:16:19.542Z,5.87
2023-03-17T14:18:51.482Z,5.97
2023-03-17T14:21:31.881Z,5.83
2023-03-17T14:24:00.995Z,4.97
2023-03-17T14:26:29.314Z,7.33
2023-03-17T14:28:58.220Z,5.97
2023-03-17T14:31:27.041Z,6.30
2023-03-17T14:34:01.363Z,5.40
2023-03-17T14:36:29.462Z,5.23
2023-03-17T14:38:57.514Z,4.93
2023-03-17T14:41:25.997Z,4.90
2023-03-17T14:43:54.427Z,5.50
2023-03-17T14:46:23.519Z,5.03
2023-03-17T14:48:52.550Z,4.63
2023-03-17T14:51:21.482Z,7.23
2023-03-17T14:53:48.986Z,5.20
2023-03-17T14:56:17.896Z,4.67
2023-03-17T14:58:47.702Z,4.87
2023-03-17T15:01:18.989Z,5.03
2023-03-17T15:03:56.974Z,4.60
2023-03-17T15:06:30.483Z,5.03
2023-03-17T15:09:03.725Z,4.60
2023-03-17T15:11:38.432Z,4.20
2023-03-17T15:14:22.380Z,5.67
2023-03-17T15:16:51.181Z,7.10
2023-03-17T15:19:23.039Z,8.60
2023-03-17T15:21:50.903Z,8.10
2023-03-17T15:24:25.800Z,5.70
2023-03-17T15:27:00.661Z,5.20
2023-03-17T15:29:28.384Z,5.07
2023-03-17T15:31:57.311Z,4.97
2023-03-17T15:34:25.044Z,5.63
2023-03-17T15:36:52.386Z,5.40
2023-03-17T15:39:19.735Z,6.03
2023-03-17T15:41:47.121Z,5.90
2023-03-17T15:44:14.585Z,5.80
2023-03-17T15:46:41.961Z,5.83
2023-03-17T15:49:10.824Z,6.07
2023-03-17T15:51:38.154Z,5.80
2023-03-17T15:54:05.537Z,5.80
2023-03-17T15:56:34.370Z,5.77
2023-03-17T15:59:02.270Z,5.37
2023-03-17T16:01:29.722Z,5.50
2023-03-17T16:03:57.052Z,5.30
2023-03-17T16:06:24.641Z,4.90
2023-03-17T16:08:52.324Z,5.00
2023-03-17T16:11:22.552Z,5.40
2023-03-17T16:13:49.891Z,5.40
2023-03-17T16:16:20.430Z,5.17
2023-03-17T16:18:48.413Z,6.00
2023-03-17T16:21:16.908Z,5.00
2023-03-17T16:23:44.420Z,4.90
2023-03-17T16:26:15.920Z,5.20
2023-03-17T16:28:41.505Z,5.80
2023-03-17T16:31:16.174Z,5.13
2023-03-17T16:33:43.562Z,5.20
2023-03-17T16:36:12.513Z,6.23
2023-03-17T16:38:39.855Z,5.60
2023-03-17T16:41:08.984Z,6.00
2023-03-17T16:43:39.619Z,8.53
2023-03-17T16:46:07.712Z,6.47
2023-03-17T16:48:35.062Z,5.53
2023-03-17T16:51:02.624Z,5.63
2023-03-17T16:53:30.143Z,6.60
2023-03-17T16:55:57.588Z,5.40
2023-03-17T16:58:25.999Z,7.10
2023-03-17T17:00:55.276Z,6.47
2023-03-17T17:03:22.595Z,5.30
2023-03-17T17:05:50.125Z,6.10
2023-03-17T17:08:17.902Z,7.33
2023-03-17T17:10:45.443Z,5.23
2023-03-17T17:13:13.153Z,7.20
2023-03-17T17:15:41.049Z,6.00
2023-03-17T17:18:09.967Z,5.93
2023-03-17T17:20:39.194Z,6.30
2023-03-17T17:23:08.362Z,6.90
2023-03-17T17:25:35.744Z,6.13
2023-03-17T17:28:03.259Z,6.47
2023-03-17T17:30:30.965Z,6.27
2023-03-17T17:32:59.564Z,6.87
2023-03-17T17:35:29.529Z,5.57
2023-03-17T17:37:57.210Z,5.60
2023-03-17T17:40:25.180Z,5.10
2023-03-17T17:42:52.910Z,5.57
2023-03-17T17:45:20.264Z,5.17
2023-03-17T17:47:47.949Z,5.13
2023-03-17T17:50:19.570Z,5.00
2023-03-17T17:52:47.954Z,4.80
2023-03-17T17:55:15.566Z,5.13
2023-03-17T17:57:42.925Z,4.70
2023-03-17T18:00:12.475Z,4.90
2023-03-17T18:02:39.820Z,4.20
2023-03-17T18:05:08.971Z,4.90
2023-03-17T18:07:36.459Z,5.67
2023-03-17T18:10:04.366Z,4.60
2023-03-17T18:12:31.728Z,5.10
2023-03-17T18:14:59.070Z,4.50
2023-03-17T18:17:27.066Z,5.33
2023-03-17T18:19:54.488Z,5.07
2023-03-17T18:22:22.454Z,4.77
2023-03-17T18:24:49.812Z,5.10
2023-03-17T18:27:17.483Z,4.87
2023-03-17T18:29:45.086Z,4.77
2023-03-17T18:32:12.944Z,4.97
2023-03-17T18:34:43.368Z,5.20
2023-03-17T18:37:12.305Z,5.60
2023-03-17T18:39:40.832Z,5.63
2023-03-17T18:42:08.293Z,6.10
2023-03-17T18:44:35.570Z,5.37
2023-03-17T18:47:03.269Z,5.80
2023-03-17T18:49:30.653Z,5.30
2023-03-17T18:51:59.464Z,6.30
2023-03-17T18:54:27.574Z,5.37
2023-03-17T18:56:55.504Z,7.00
2023-03-17T18:59:22.904Z,4.93
2023-03-17T19:01:50.310Z,5.63
2023-03-17T19:04:17.669Z,6.47
2023-03-17T19:06:45.962Z,6.83
2023-03-17T19:09:13.313Z,6.23
2023-03-17T19:11:41.095Z,6.13
2023-03-17T19:14:09.712Z,6.80
2023-03-17T19:16:37.086Z,10.53
2023-03-17T19:19:04.431Z,6.90
2023-03-17T19:21:32.236Z,7.10
2023-03-17T19:24:01.110Z,6.83
2023-03-17T19:26:30.211Z,6.10
2023-03-17T19:28:57.561Z,8.60
2023-03-17T19:31:25.083Z,6.90
2023-03-17T19:33:52.566Z,5.90
2023-03-17T19:36:19.995Z,6.27
2023-03-17T19:38:47.329Z,6.40
2023-03-17T19:41:15.485Z,6.33
2023-03-17T19:43:42.816Z,6.93
2023-03-17T19:46:11.527Z,5.57
2023-03-17T19:48:39.340Z,6.60
2023-03-17T19:51:07.822Z,6.63
2023-03-17T19:53:35.331Z,8.00
2023-03-17T19:56:02.677Z,6.33
2023-03-17T19:58:30.007Z,6.30
2023-03-17T20:00:57.339Z,6.20
2023-03-17T20:03:26.305Z,7.00
2023-03-17T20:05:54.020Z,6.77
2023-03-17T20:08:22.209Z,7.03
2023-03-17T20:10:54.046Z,6.90
2023-03-17T20:13:22.388Z,6.10
2023-03-17T20:15:51.303Z,7.53
2023-03-17T20:18:19.552Z,7.80
2023-03-17T20:20:49.322Z,6.33
2023-03-17T20:23:16.692Z,7.00
2023-03-17T20:25:44.407Z,6.73
2023-03-17T20:28:12.428Z,5.70
2023-03-17T20:30:40.273Z,6.00
2023-03-17T20:33:09.309Z,4.93
2023-03-17T20:35:38.556Z,5.30
2023-03-17T20:38:05.948Z,5.30
2023-03-17T20:40:33.571Z,4.63
2023-03-17T20:43:01.623Z,4.23
2023-03-17T20:45:29.160Z,3.80
2023-03-17T20:47:56.488Z,3.87
2023-03-17T20:50:24.672Z,4.10
2023-03-17T20:52:52.266Z,3.20
2023-03-17T20:55:19.962Z,3.73
2023-03-17T20:57:49.097Z,4.13
2023-03-17T21:00:17.877Z,3.90
2023-03-17T21:02:47.476Z,3.73
2023-03-17T21:05:15.632Z,3.73
2023-03-17T21:07:43.425Z,3.50
2023-03-17T21:10:10.938Z,4.17
2023-03-17T21:12:38.296Z,4.27
2023-03-17T21:15:05.994Z,4.30
2023-03-17T21:17:34.010Z,3.97
2023-03-17T21:20:01.673Z,3.87
2023-03-17T21:22:29.887Z,3.90
2023-03-17T21:24:57.273Z,3.70
2023-03-17T21:27:24.614Z,3.40
2023-03-17T21:29:52.239Z,3.37
2023-03-17T21:32:19.629Z,4.10
2023-03-17T21:34:47.945Z,2.90
2023-03-17T21:37:17.277Z,3.57
2023-03-17T21:39:45.648Z,3.70
2023-03-17T21:42:13.449Z,3.40
2023-03-17T21:44:40.824Z,3.60
2023-03-17T21:47:08.644Z,3.80
2023-03-17T21:49:36.017Z,3.53
2023-03-17T21:52:04.323Z,2.80
2023-03-17T21:54:31.749Z,3.37
2023-03-17T21:56:59.319Z,3.37
2023-03-17T21:59:28.479Z,3.10
2023-03-17T22:01:55.810Z,3.77
2023-03-17T22:04:23.071Z,3.67
2023-03-17T22:06:51.704Z,3.60
2023-03-17T22:09:19.348Z,4.07
2023-03-17T22:11:46.762Z,3.60
2023-03-17T22:14:15.769Z,3.57
2023-03-17T22:16:43.375Z,3.73
2023-03-17T22:19:10.987Z,3.63
2023-03-17T22:21:39.086Z,3.70
2023-03-17T22:24:07.228Z,3.93
2023-03-17T22:26:34.559Z,3.30
2023-03-17T22:29:01.915Z,3.57
2023-03-17T22:31:31.156Z,3.93
2023-03-17T22:33:59.547Z,3.10
2023-03-17T22:36:27.458Z,3.43
2023-03-17T22:38:55.920Z,3.90
2023-03-17T22:41:24.561Z,3.40
2023-03-17T22:43:51.984Z,3.30
2023-03-17T22:46:19.561Z,3.20
2023-03-17T22:48:46.998Z,3.37
2023-03-17T22:51:16.654Z,3.50
2023-03-17T22:53:44.363Z,3.13
2023-03-17T22:56:12.287Z,3.30
2023-03-17T22:58:40.321Z,3.20
2023-03-17T23:01:08.033Z,3.43
2023-03-17T23:03:35.910Z,3.10
2023-03-17T23:06:04.085Z,3.20
2023-03-17T23:08:33.832Z,3.13
2023-03-17T23:11:02.686Z,3.40
2023-03-17T23:13:30.339Z,3.67
2023-03-17T23:15:58.093Z,3.50
2023-03-17T23:18:25.548Z,2.87
2023-03-17T23:20:53.312Z,2.87
2023-03-17T23:23:20.658Z,2.80
2023-03-17T23:25:48.104Z,2.57
2023-03-17T23:28:15.889Z,2.77
2023-03-17T23:30:45.485Z,2.87
2023-03-17T23:33:13.223Z,2.43
2023-03-17T23:35:40.739Z,2.50
2023-03-17T23:38:08.738Z,2.20
2023-03-17T23:40:36.086Z,2.47
2023-03-17T23:43:05.400Z,2.40
2023-03-17T23:45:34.377Z,1.87
2023-03-17T23:48:02.711Z,2.10
2023-03-17T23:50:31.750Z,1.90
2023-03-17T23:52:59.336Z,1.90
2023-03-17T23:55:26.620Z,1.70
2023-03-17T23:57:53.955Z,2.63
